Arcadia — 9HYW6 — position and weather

sailwx.info

Track history (hours):
 
Tides and Currents Weather Stations Pressure Air Temp Water Temp Dewpoint Dewpoint Depression Visibility Wind Speed Wind Dir Waves Ship Positions

Arcadia

Last reported at 2017-Dec-29 17:37 UTC. Time now 2018-Feb-19 04:15 UTC.
Position N 31°06' E 122°20'.
Warning: this ship's position is 51 days out of date.

Length 189 m; draft 11.2 m.

Type: Cargo ship. MMSI: 215037000.

Date/timePositionNaut miles runAvg speedWind from/ knotsBaromVisibWave heightAir tempDewpointWater temp
2017-Dec-29 17:37N 31°06' E 122°20'110.9
2017-Dec-29 17:29N 31°06' E 122°18'613.2
2017-Dec-29 17:00N 31°10' E 122°12'713.6
2017-Dec-29 16:30N 31°14' E 122°06'713.2
2017-Dec-29 15:59N 31°15' E 121°58'712.1
2017-Dec-29 15:24N 31°17' E 121°50'512.0
2017-Dec-29 15:01N 31°19' E 121°45'611.1
2017-Dec-29 14:30N 31°21' E 121°39'510.3
2017-Dec-29 14:00N 31°24' E 121°34'4 8.7
2017-Dec-29 13:30N 31°26' E 121°29'4 7.7
2017-Dec-29 13:00N 31°29' E 121°26'510.2
2017-Dec-29 12:30N 31°32' E 121°22'510.5
2017-Dec-29 12:00N 31°36' E 121°17'611.7
2017-Dec-29 11:30N 31°40' E 121°12'612.2
2017-Dec-29 11:00N 31°44' E 121°07'612.5
2017-Dec-29 10:30N 31°47' E 121°00'  
2017-Dec-27 02:47N 31°47' E 120°59'310.6
2017-Dec-27 02:30N 31°46' E 121°02'610.1
2017-Dec-27 01:55N 31°43' E 121°08'410.2
2017-Dec-27 01:30N 31°40' E 121°12'611.1
2017-Dec-27 01:00N 31°37' E 121°17'510.7
2017-Dec-27 00:30N 31°33' E 121°21'510.8
2017-Dec-27 00:00N 31°30' E 121°26'610.3
2017-Dec-26 23:27N 31°25' E 121°31'4 9.5
2017-Dec-26 22:59N 31°23' E 121°35'1010.4
2017-Dec-26 22:02N 31°19' E 121°45'310.7
2017-Dec-26 21:48N 31°18' E 121°48'410.8
2017-Dec-26 21:23N 31°16' E 121°53'510.9
2017-Dec-26 20:57N 31°15' E 121°58'511.0
2017-Dec-26 20:29N 31°14' E 122°04'710.6
2017-Dec-26 19:50N 31°11' E 122°11'411.5
2017-Dec-26 19:28N 31°08' E 122°15'  
2017-Dec-23 11:23N 25°14' E 122°48'512.9
2017-Dec-23 11:00N 25°09' E 122°47'812.8
2017-Dec-23 10:25N 25°02' E 122°47'512.6
2017-Dec-23 10:00N 24°57' E 122°46'612.3
2017-Dec-23 09:29N 24°50' E 122°46'612.1
2017-Dec-23 09:00N 24°44' E 122°45'612.2
2017-Dec-23 08:30N 24°38' E 122°44'612.2
2017-Dec-23 08:00N 24°32' E 122°43'612.2
2017-Dec-23 07:30N 24°26' E 122°43'612.1
2017-Dec-23 07:00N 24°20' E 122°42'612.3
2017-Dec-23 06:30N 24°14' E 122°41'612.4
2017-Dec-23 06:00N 24°08' E 122°41'612.4
2017-Dec-23 05:30N 24°02' E 122°40'611.8
2017-Dec-23 05:00N 23°57' E 122°38'612.4
2017-Dec-23 04:30N 23°52' E 122°33'612.6
2017-Dec-23 04:00N 23°46' E 122°29'612.6
2017-Dec-23 03:30N 23°41' E 122°25'6012.1
2017-Dec-22 22:30N 22°52' E 121°48'1812.2
2017-Dec-22 21:03N 22°37' E 121°37'112.4
2017-Dec-22 21:00N 22°37' E 121°37'611.9
2017-Dec-22 20:30N 22°32' E 121°33'611.7
2017-Dec-22 20:00N 22°27' E 121°29'1212.2
2017-Dec-22 19:00N 22°17' E 121°22'712.3
2017-Dec-22 18:23N 22°11' E 121°17'512.1
2017-Dec-22 18:00N 22°07' E 121°14'  
Track history (hours):
 
Tides and Currents Weather Stations Pressure Air Temp Water Temp Dewpoint Dewpoint Depression Visibility Wind Speed Wind Dir Waves Ship Positions

Arcadia

Last reported at 2017-Dec-29 17:37 UTC. Time now 2018-Feb-19 04:15 UTC.
Position N 31°06' E 122°20'.
Warning: this ship's position is 51 days out of date.

Length 189 m; draft 11.2 m.

Type: Cargo ship. MMSI: 215037000.

Date/timePositionNaut miles runAvg speedWind from/ knotsBaromVisibWave heightAir tempDewpointWater temp
2017-Dec-29 17:37N 31°06' E 122°20'110.9
2017-Dec-29 17:29N 31°06' E 122°18'613.2
2017-Dec-29 17:00N 31°10' E 122°12'713.6
2017-Dec-29 16:30N 31°14' E 122°06'713.2
2017-Dec-29 15:59N 31°15' E 121°58'712.1
2017-Dec-29 15:24N 31°17' E 121°50'512.0
2017-Dec-29 15:01N 31°19' E 121°45'611.1
2017-Dec-29 14:30N 31°21' E 121°39'510.3
2017-Dec-29 14:00N 31°24' E 121°34'4 8.7
2017-Dec-29 13:30N 31°26' E 121°29'4 7.7
2017-Dec-29 13:00N 31°29' E 121°26'510.2
2017-Dec-29 12:30N 31°32' E 121°22'510.5
2017-Dec-29 12:00N 31°36' E 121°17'611.7
2017-Dec-29 11:30N 31°40' E 121°12'612.2
2017-Dec-29 11:00N 31°44' E 121°07'612.5
2017-Dec-29 10:30N 31°47' E 121°00'  
2017-Dec-27 02:47N 31°47' E 120°59'310.6
2017-Dec-27 02:30N 31°46' E 121°02'610.1
2017-Dec-27 01:55N 31°43' E 121°08'410.2
2017-Dec-27 01:30N 31°40' E 121°12'611.1
2017-Dec-27 01:00N 31°37' E 121°17'510.7
2017-Dec-27 00:30N 31°33' E 121°21'510.8
2017-Dec-27 00:00N 31°30' E 121°26'610.3
2017-Dec-26 23:27N 31°25' E 121°31'4 9.5
2017-Dec-26 22:59N 31°23' E 121°35'1010.4
2017-Dec-26 22:02N 31°19' E 121°45'310.7
2017-Dec-26 21:48N 31°18' E 121°48'410.8
2017-Dec-26 21:23N 31°16' E 121°53'510.9
2017-Dec-26 20:57N 31°15' E 121°58'511.0
2017-Dec-26 20:29N 31°14' E 122°04'710.6
2017-Dec-26 19:50N 31°11' E 122°11'411.5
2017-Dec-26 19:28N 31°08' E 122°15'  
2017-Dec-23 11:23N 25°14' E 122°48'512.9
2017-Dec-23 11:00N 25°09' E 122°47'812.8
2017-Dec-23 10:25N 25°02' E 122°47'512.6
2017-Dec-23 10:00N 24°57' E 122°46'612.3
2017-Dec-23 09:29N 24°50' E 122°46'612.1
2017-Dec-23 09:00N 24°44' E 122°45'612.2
2017-Dec-23 08:30N 24°38' E 122°44'612.2
2017-Dec-23 08:00N 24°32' E 122°43'612.2
2017-Dec-23 07:30N 24°26' E 122°43'612.1
2017-Dec-23 07:00N 24°20' E 122°42'612.3
2017-Dec-23 06:30N 24°14' E 122°41'612.4
2017-Dec-23 06:00N 24°08' E 122°41'612.4
2017-Dec-23 05:30N 24°02' E 122°40'611.8
2017-Dec-23 05:00N 23°57' E 122°38'612.4
2017-Dec-23 04:30N 23°52' E 122°33'612.6
2017-Dec-23 04:00N 23°46' E 122°29'612.6
2017-Dec-23 03:30N 23°41' E 122°25'6012.1
2017-Dec-22 22:30N 22°52' E 121°48'1812.2
2017-Dec-22 21:03N 22°37' E 121°37'112.4
2017-Dec-22 21:00N 22°37' E 121°37'611.9
2017-Dec-22 20:30N 22°32' E 121°33'611.7
2017-Dec-22 20:00N 22°27' E 121°29'1212.2
2017-Dec-22 19:00N 22°17' E 121°22'712.3
2017-Dec-22 18:23N 22°11' E 121°17'512.1
2017-Dec-22 18:00N 22°07' E 121°14'  

Dump ship's entire track history